Strona główna
METAR-TAF:

METAR-TAF

Lotnisko :

Port lotniczy Yap

Yap, Mikronezja

Szerokość geograficzna: 09-29N, Długość geograficzna: 138-05E, wysokość: 28 m

Aktualna obserwacja pogody

Raport powstał 54 minut temu, godzina 01:50 UTC
Wiatr 4 kt z kierunków zmiennych
Temperatura 31°C
Wilgotność 71%
Ciśnienie 1009 hPa
Widzialność: 19.3 km
Mało chmury na wysokości 1600 ft, Cumulonimbus.
Rozproszone chmury na wysokości 30000 ft

METAR: PTYA 180150Z VRB04KT 12SM FEW016CB SCT300 31/25 A2981 RMK CB N SLP095 T03070250

czas: 12:44 (02:44 UTC)

Prognoza

Raport powstał 3 godziny i 8 minut temu, godzina 23:36 UTC
Prognoza ważna od 18 godzina 00 UTC do 18 godzina 24 UTC
Wiatr 3 kt z kierunków zmiennych
Widzialność: 10 km
Rozproszone chmury na wysokości 1600 ft
Rozproszone chmury na wysokości 12000 ft
przelotny w pobliże
Przejściowo
od 18 godzina 02 UTC do 18 godzina 04 UTC
Widzialność: 6.4 km
Zachmurzenie całkowite na wysokości 1600 ft
przelotny opad deszczu

TAF: PTYA 172336Z 1800/1824 VRB03KT P6SM VCSH SCT016 SCT120 TEMPO 1802/1804 4SM SHRA OVC016

Obserwacja i prognoza pogody dla ponad 4000 lotnisk (raport METAR i TAF).

Dostępne stacje oznaczono żółtymi i czerwonymi punktami na mapie.

Najedź kursorem aby zobaczyć nazwę stacji.

Kliknij aby zobaczyć obserwacje i prognozy pogody.

Aby zmienić mapę: kliknij na zielony przycisk z czarnym krzyżykiem, aby powiększyć; na zielony przycisk z myślnikiem, aby pomniejszyć; na zielone strzałki, aby przejść do map sąsiednich.


METAR-TAF: